Time;durP1;ratioP1;P1;durP2;ratioP2;P2;SDS_P1;SDS_P2;PMS_P1;PMS_P2;Temp;Humidity;BMP_temperature;BMP_pressure;BME280_temperature;BME280_humidity;BME280_pressure;Samples;Min_cycle;Max_cycle;Signal;HPM_P1;HPM_P2
2023/06/20 00:00:17;;;;;;;0.05;0.05;;;19.90;72.40;;;;;;5035239;28;20092;-68
2023/06/20 00:02:42;;;;;;;0.00;0.00;;;19.80;72.30;;;;;;5042946;28;20049;-68
2023/06/20 00:05:08;;;;;;;0.00;0.00;;;19.80;72.20;;;;;;5034047;28;20045;-69
2023/06/20 00:07:34;;;;;;;0.00;0.00;;;19.80;71.90;;;;;;5045247;28;20083;-68
2023/06/20 00:09:59;;;;;;;0.00;0.00;;;19.70;71.80;;;;;;5027936;28;20451;-68
2023/06/20 00:12:25;;;;;;;0.00;0.00;;;19.70;71.90;;;;;;5044347;28;20133;-68
2023/06/20 00:14:50;;;;;;;0.25;0.25;;;19.70;71.70;;;;;;5048608;28;20044;-68
2023/06/20 00:17:16;;;;;;;0.00;0.00;;;19.70;71.60;;;;;;5047611;28;20386;-68
2023/06/20 00:19:42;;;;;;;0.00;0.00;;;19.60;71.60;;;;;;5031678;28;20495;-68
2023/06/20 00:22:07;;;;;;;0.63;0.63;;;19.70;71.60;;;;;;5044788;28;20049;-68
2023/06/20 00:24:33;;;;;;;0.00;0.00;;;19.60;71.70;;;;;;5042400;28;21199;-69
2023/06/20 00:27:02;;;;;;;0.00;0.00;;;19.60;71.70;;;;;;5047949;28;20508;-68
2023/06/20 00:29:28;;;;;;;0.00;0.00;;;19.60;71.90;;;;;;5039001;28;20454;-68
2023/06/20 00:31:54;;;;;;;0.00;0.00;;;19.60;72.00;;;;;;5032858;28;20113;-68
2023/06/20 00:34:21;;;;;;;0.00;0.00;;;19.50;72.00;;;;;;5034055;28;20103;-69
2023/06/20 00:36:46;;;;;;;0.00;0.00;;;19.50;72.10;;;;;;5032870;28;20042;-69
2023/06/20 00:39:12;;;;;;;0.00;0.00;;;19.50;72.10;;;;;;5032912;28;20041;-68
2023/06/20 00:41:38;;;;;;;0.00;0.00;;;19.50;72.10;;;;;;5032403;28;20049;-68
2023/06/20 00:44:05;;;;;;;0.00;0.00;;;19.50;72.30;;;;;;5042214;28;20096;-68
2023/06/20 00:46:40;;;;;;;0.00;0.00;;;19.50;72.40;;;;;;5046977;28;20501;-68
2023/06/20 00:49:07;;;;;;;0.00;0.00;;;19.40;72.10;;;;;;5032574;28;20069;-68
2023/06/20 00:51:34;;;;;;;0.00;0.00;;;19.40;72.30;;;;;;5032546;28;20037;-68
2023/06/20 00:54:01;;;;;;;0.00;0.00;;;19.40;72.40;;;;;;5036411;28;20088;-69
2023/06/20 00:56:27;;;;;;;0.00;0.00;;;19.40;72.70;;;;;;5034078;28;20041;-68
2023/06/20 00:58:53;;;;;;;0.00;0.00;;;19.40;72.50;;;;;;5044033;28;20516;-68
2023/06/20 01:01:21;;;;;;;0.00;0.00;;;19.40;72.70;;;;;;5050937;28;20041;-68
2023/06/20 01:03:48;;;;;;;0.00;0.00;;;19.30;72.60;;;;;;5037962;28;20049;-68
2023/06/20 01:06:32;;;;;;;0.00;0.00;;;19.30;72.80;;;;;;5032627;28;20038;-68
2023/06/20 01:09:26;;;;;;;0.00;0.00;;;19.30;72.90;;;;;;5048016;28;20059;-68
2023/06/20 01:12:10;;;;;;;0.00;0.00;;;19.30;73.20;;;;;;5024135;28;20045;-68
2023/06/20 01:14:54;;;;;;;0.00;0.00;;;19.30;73.40;;;;;;5037540;28;20154;-69
2023/06/20 01:17:22;;;;;;;0.00;0.00;;;19.30;73.80;;;;;;5050488;28;20053;-68
2023/06/20 01:20:12;;;;;;;0.00;0.00;;;19.30;74.50;;;;;;5048071;28;20046;-68
2023/06/20 01:23:00;;;;;;;0.00;0.00;;;19.20;74.30;;;;;;5016453;28;20045;-68
2023/06/20 01:25:52;;;;;;;0.00;0.00;;;19.20;75.00;;;;;;5032250;28;20033;-69
2023/06/20 01:28:17;;;;;;;0.00;0.00;;;19.30;75.60;;;;;;5049496;28;20531;-68
2023/06/20 01:30:52;;;;;;;0.00;0.00;;;19.20;75.10;;;;;;5050972;28;20048;-68
2023/06/20 01:33:23;;;;;;;0.43;0.43;;;19.20;74.90;;;;;;5019916;28;20095;-68
2023/06/20 01:35:49;;;;;;;0.00;0.00;;;19.20;75.30;;;;;;5018218;28;20060;-68
2023/06/20 01:38:17;;;;;;;0.00;0.00;;;19.20;75.10;;;;;;5033255;28;20041;-68
2023/06/20 01:40:47;;;;;;;0.00;0.00;;;19.20;75.60;;;;;;5041791;28;20080;-69
2023/06/20 01:43:14;;;;;;;0.30;0.30;;;19.10;75.40;;;;;;5031929;28;20486;-68
2023/06/20 01:45:43;;;;;;;0.00;0.00;;;19.20;75.60;;;;;;5050831;28;20041;-69
2023/06/20 01:48:10;;;;;;;0.00;0.00;;;19.10;75.60;;;;;;5051012;28;20073;-68
2023/06/20 01:50:37;;;;;;;0.00;0.00;;;19.20;75.80;;;;;;5050928;28;20861;-69
2023/06/20 01:53:04;;;;;;;0.00;0.00;;;19.20;75.60;;;;;;5045294;28;20045;-69
2023/06/20 01:55:32;;;;;;;0.00;0.00;;;19.20;75.70;;;;;;5031667;28;20045;-68
2023/06/20 01:57:59;;;;;;;0.00;0.00;;;19.20;75.90;;;;;;5032969;28;20103;-69
2023/06/20 02:00:27;;;;;;;0.00;0.00;;;19.20;76.40;;;;;;5050991;28;20131;-69
2023/06/20 02:02:56;;;;;;;0.00;0.00;;;19.20;76.30;;;;;;5046260;28;20137;-68
2023/06/20 02:05:22;;;;;;;0.10;0.10;;;19.20;76.20;;;;;;5048960;28;20052;-68
2023/06/20 02:07:49;;;;;;;0.00;0.00;;;19.20;76.40;;;;;;5048777;28;20049;-69
2023/06/20 02:10:16;;;;;;;0.00;0.00;;;19.20;76.10;;;;;;5031133;28;20048;-69
2023/06/20 02:12:43;;;;;;;0.00;0.00;;;19.10;76.50;;;;;;5028164;28;20081;-68
2023/06/20 02:15:10;;;;;;;0.00;0.00;;;19.10;77.00;;;;;;5044221;28;20045;-68
2023/06/20 02:17:37;;;;;;;0.00;0.00;;;19.10;77.40;;;;;;5040457;28;20041;-68
2023/06/20 02:20:04;;;;;;;0.00;0.00;;;19.20;77.00;;;;;;5030574;28;20449;-68
2023/06/20 02:22:32;;;;;;;0.00;0.00;;;19.10;76.70;;;;;;5030331;28;20053;-69
2023/06/20 02:25:03;;;;;;;0.00;0.00;;;19.10;76.50;;;;;;5045116;28;20037;-68
2023/06/20 02:27:29;;;;;;;0.00;0.00;;;19.10;76.60;;;;;;5035956;28;20052;-69
2023/06/20 02:29:56;;;;;;;0.10;0.10;;;19.00;76.10;;;;;;5030609;28;20086;-68
2023/06/20 02:32:24;;;;;;;0.00;0.00;;;19.10;76.60;;;;;;5030278;28;20045;-68
2023/06/20 02:34:51;;;;;;;0.20;0.20;;;19.10;77.30;;;;;;5035419;28;20524;-68
2023/06/20 02:37:16;;;;;;;0.00;0.00;;;19.00;77.00;;;;;;5038031;28;20060;-68
2023/06/20 02:39:42;;;;;;;0.00;0.00;;;19.00;76.80;;;;;;5039348;28;20049;-68
2023/06/20 02:42:08;;;;;;;0.00;0.00;;;19.00;76.70;;;;;;5040076;28;20037;-68
2023/06/20 02:44:34;;;;;;;0.00;0.00;;;19.00;76.80;;;;;;5030303;28;20053;-68
2023/06/20 02:47:05;;;;;;;0.00;0.00;;;19.00;76.80;;;;;;5029630;28;20041;-69
2023/06/20 02:49:43;;;;;;;0.00;0.00;;;18.90;76.60;;;;;;5023085;28;20704;-68
2023/06/20 02:52:26;;;;;;;0.00;0.00;;;19.00;76.60;;;;;;5020003;28;20037;-68
2023/06/20 02:55:06;;;;;;;0.00;0.00;;;18.90;77.00;;;;;;5033186;28;20072;-69
2023/06/20 02:57:35;;;;;;;0.00;0.00;;;18.90;76.60;;;;;;5050152;28;20045;-68
2023/06/20 03:00:09;;;;;;;0.00;0.00;;;18.90;76.50;;;;;;5030801;28;20466;-68
2023/06/20 03:02:39;;;;;;;0.15;0.15;;;18.90;76.40;;;;;;5018663;28;20041;-69
2023/06/20 03:05:09;;;;;;;0.00;0.00;;;18.90;76.60;;;;;;5043976;28;20383;-69
2023/06/20 03:07:36;;;;;;;0.00;0.00;;;18.90;76.40;;;;;;5047120;28;20641;-69
2023/06/20 03:10:04;;;;;;;0.00;0.00;;;18.90;76.50;;;;;;5044278;28;20471;-68
2023/06/20 03:12:30;;;;;;;0.00;0.00;;;18.90;77.00;;;;;;5018487;28;20040;-68
2023/06/20 03:14:56;;;;;;;0.00;0.00;;;18.90;77.00;;;;;;5032675;28;20045;-69
2023/06/20 03:17:21;;;;;;;0.00;0.00;;;18.90;76.80;;;;;;5045232;28;20040;-69
2023/06/20 03:19:47;;;;;;;0.00;0.00;;;18.80;76.80;;;;;;5035048;28;20136;-68
2023/06/20 03:22:12;;;;;;;0.00;0.00;;;18.90;76.50;;;;;;5019905;28;20042;-68
2023/06/20 03:24:38;;;;;;;0.00;0.00;;;18.90;76.80;;;;;;5025114;28;20425;-68
2023/06/20 03:27:04;;;;;;;0.00;0.00;;;18.90;76.60;;;;;;5031273;28;20508;-69
2023/06/20 03:29:29;;;;;;;0.00;0.00;;;18.90;76.80;;;;;;5045791;28;20079;-68
2023/06/20 03:31:55;;;;;;;0.35;0.30;;;19.00;76.50;;;;;;5029933;28;20052;-68
2023/06/20 03:34:20;;;;;;;0.13;0.13;;;19.00;76.60;;;;;;5033766;28;20044;-69
2023/06/20 03:36:46;;;;;;;0.00;0.00;;;19.00;76.60;;;;;;5030647;28;20185;-68
2023/06/20 03:39:11;;;;;;;0.00;0.00;;;19.00;76.50;;;;;;5045746;28;20099;-68
2023/06/20 03:41:37;;;;;;;0.13;0.13;;;19.00;76.50;;;;;;5030179;28;20124;-68
2023/06/20 03:44:03;;;;;;;0.00;0.00;;;19.00;76.30;;;;;;5042635;28;20073;-69
2023/06/20 03:46:28;;;;;;;0.00;0.00;;;19.10;76.20;;;;;;5047302;28;20040;-68
2023/06/20 03:48:54;;;;;;;0.00;0.00;;;19.10;76.30;;;;;;5049332;28;20387;-69
2023/06/20 03:51:19;;;;;;;0.00;0.00;;;19.10;76.40;;;;;;5015096;28;20618;-68
2023/06/20 03:53:45;;;;;;;0.00;0.00;;;19.10;76.00;;;;;;5028973;28;20399;-68
2023/06/20 03:56:11;;;;;;;0.00;0.00;;;19.20;75.90;;;;;;5029151;28;20434;-68
2023/06/20 03:58:36;;;;;;;0.00;0.00;;;19.20;76.00;;;;;;5028858;28;20129;-68
2023/06/20 04:01:02;;;;;;;0.00;0.00;;;19.20;76.20;;;;;;5027796;28;20045;-68
2023/06/20 04:03:28;;;;;;;0.00;0.00;;;19.20;76.20;;;;;;5028840;28;20117;-68
2023/06/20 04:05:54;;;;;;;0.00;0.00;;;19.20;76.10;;;;;;5047604;28;20049;-68
2023/06/20 04:08:21;;;;;;;0.00;0.00;;;19.30;76.00;;;;;;5031564;28;20049;-68
2023/06/20 04:10:46;;;;;;;0.00;0.00;;;19.30;76.00;;;;;;5026895;28;20084;-68
2023/06/20 04:13:12;;;;;;;0.00;0.00;;;19.30;75.80;;;;;;5012393;28;20037;-68
2023/06/20 04:15:37;;;;;;;0.00;0.00;;;19.30;75.90;;;;;;5037790;28;20037;-69
2023/06/20 04:18:03;;;;;;;0.00;0.00;;;19.30;75.80;;;;;;5036110;28;20445;-68
2023/06/20 04:20:29;;;;;;;0.00;0.00;;;19.30;75.90;;;;;;5017341;28;20065;-68
2023/06/20 04:22:55;;;;;;;0.20;0.20;;;19.40;75.80;;;;;;5029685;28;20415;-68
2023/06/20 04:25:20;;;;;;;0.00;0.00;;;19.50;75.80;;;;;;5028849;28;20048;-69
2023/06/20 04:27:53;;;;;;;0.00;0.00;;;19.50;75.60;;;;;;5028969;28;20399;-69
2023/06/20 04:30:19;;;;;;;0.00;0.00;;;19.50;75.90;;;;;;5028927;28;20498;-68
2023/06/20 04:32:44;;;;;;;0.00;0.00;;;19.50;75.80;;;;;;5028589;28;20056;-68
2023/06/20 04:35:10;;;;;;;0.00;0.00;;;19.50;76.10;;;;;;5030101;28;20049;-68
2023/06/20 04:37:36;;;;;;;0.00;0.00;;;19.50;75.90;;;;;;5040325;28;20191;-68
2023/06/20 04:40:04;;;;;;;0.00;0.00;;;19.50;75.50;;;;;;5032312;28;20088;-68
2023/06/20 04:42:30;;;;;;;0.00;0.00;;;19.60;75.70;;;;;;5033365;28;20050;-68
2023/06/20 04:44:55;;;;;;;0.00;0.00;;;19.60;75.80;;;;;;5029040;28;20072;-68
2023/06/20 04:47:21;;;;;;;0.15;0.15;;;19.60;75.70;;;;;;5022943;28;20046;-68
2023/06/20 04:49:46;;;;;;;0.00;0.00;;;19.60;76.00;;;;;;5028311;28;20042;-68
2023/06/20 04:52:12;;;;;;;0.00;0.00;;;19.60;75.60;;;;;;5040227;28;20167;-68
2023/06/20 04:54:37;;;;;;;0.25;0.25;;;19.60;75.50;;;;;;5047940;28;20045;-68
2023/06/20 04:57:03;;;;;;;0.00;0.00;;;19.50;75.40;;;;;;5045711;28;20033;-68
2023/06/20 04:59:29;;;;;;;0.00;0.00;;;19.50;75.40;;;;;;5028582;28;20048;-68
2023/06/20 05:01:55;;;;;;;0.00;0.00;;;19.50;75.40;;;;;;5028596;28;20525;-69
2023/06/20 05:04:21;;;;;;;0.05;0.05;;;19.60;75.60;;;;;;5028355;28;20057;-68
2023/06/20 05:06:47;;;;;;;0.00;0.00;;;19.50;75.60;;;;;;5028209;28;20053;-68
2023/06/20 05:09:12;;;;;;;0.00;0.00;;;19.60;75.50;;;;;;5034191;28;20037;-68
2023/06/20 05:11:38;;;;;;;0.00;0.00;;;19.60;75.60;;;;;;5041621;28;20044;-68
2023/06/20 05:14:04;;;;;;;0.00;0.00;;;19.60;75.50;;;;;;5028881;28;20068;-68
2023/06/20 05:16:29;;;;;;;0.00;0.00;;;19.60;75.50;;;;;;5041815;28;20396;-68
2023/06/20 05:18:55;;;;;;;0.00;0.00;;;19.60;75.40;;;;;;5034583;28;20080;-68
2023/06/20 05:21:20;;;;;;;0.00;0.00;;;19.70;75.40;;;;;;5035642;28;20053;-68
2023/06/20 05:23:46;;;;;;;0.00;0.00;;;19.70;75.10;;;;;;5035768;28;20045;-68
2023/06/20 05:26:12;;;;;;;0.00;0.00;;;19.70;75.10;;;;;;5032864;28;20041;-68
2023/06/20 05:28:37;;;;;;;0.00;0.00;;;19.70;75.10;;;;;;5034671;28;20049;-68
2023/06/20 05:31:03;;;;;;;0.00;0.00;;;19.80;75.30;;;;;;5035902;28;20065;-69
2023/06/20 05:33:28;;;;;;;0.00;0.00;;;19.80;75.20;;;;;;5037066;28;20656;-71
2023/06/20 05:35:54;;;;;;;0.00;0.00;;;19.90;75.20;;;;;;5019612;28;20046;-69
2023/06/20 05:38:20;;;;;;;0.00;0.00;;;20.00;75.10;;;;;;5018261;28;20092;-67
2023/06/20 05:40:46;;;;;;;0.00;0.00;;;20.00;75.30;;;;;;5025625;28;20048;-67
2023/06/20 05:43:11;;;;;;;0.00;0.00;;;19.90;75.20;;;;;;5031615;28;20046;-67
2023/06/20 05:45:37;;;;;;;0.00;0.00;;;20.00;75.10;;;;;;5042270;28;20095;-67
2023/06/20 05:48:03;;;;;;;0.00;0.00;;;20.00;74.90;;;;;;5038699;28;20053;-68
2023/06/20 05:50:30;;;;;;;0.00;0.00;;;20.10;74.70;;;;;;5012091;28;20042;-66
2023/06/20 05:52:56;;;;;;;0.00;0.00;;;20.10;75.00;;;;;;5030444;28;20045;-67
2023/06/20 05:55:22;;;;;;;0.00;0.00;;;20.10;74.70;;;;;;5030847;28;20058;-67
2023/06/20 05:57:47;;;;;;;0.00;0.00;;;20.10;74.50;;;;;;5030571;28;20375;-67
2023/06/20 06:00:13;;;;;;;0.00;0.00;;;20.10;74.40;;;;;;5037507;28;20064;-67
2023/06/20 06:02:40;;;;;;;0.00;0.00;;;20.20;74.20;;;;;;5032738;28;21545;-67
2023/06/20 06:05:06;;;;;;;0.00;0.00;;;20.20;74.20;;;;;;5036093;28;20515;-69
2023/06/20 06:07:32;;;;;;;0.00;0.00;;;20.20;74.20;;;;;;5043365;28;20037;-67
2023/06/20 06:09:57;;;;;;;0.00;0.00;;;20.30;74.10;;;;;;5034910;28;20108;-70
2023/06/20 06:12:23;;;;;;;0.00;0.00;;;20.30;74.00;;;;;;5039093;28;20052;-66
2023/06/20 06:14:51;;;;;;;0.00;0.00;;;20.40;74.00;;;;;;5032722;28;20049;-68
2023/06/20 06:17:17;;;;;;;0.00;0.00;;;20.50;73.90;;;;;;5015402;28;20085;-69
2023/06/20 06:19:42;;;;;;;0.00;0.00;;;20.50;73.60;;;;;;5030855;28;20084;-65
2023/06/20 06:22:08;;;;;;;0.00;0.00;;;20.60;73.50;;;;;;5033296;28;20065;-67
2023/06/20 06:24:33;;;;;;;0.00;0.00;;;20.80;73.70;;;;;;5049247;28;20064;-66
2023/06/20 06:26:59;;;;;;;0.00;0.00;;;20.90;73.20;;;;;;5049585;28;20041;-68
2023/06/20 06:29:26;;;;;;;0.00;0.00;;;20.90;73.00;;;;;;5045834;28;20065;-71
2023/06/20 06:31:53;;;;;;;0.75;0.45;;;21.00;72.90;;;;;;5032190;28;20107;-71
2023/06/20 06:34:19;;;;;;;0.00;0.00;;;21.10;72.70;;;;;;5049663;28;20041;-73
2023/06/20 06:36:48;;;;;;;3.30;0.45;;;21.10;72.50;;;;;;5014981;28;20037;-73
2023/06/20 06:39:15;;;;;;;0.00;0.00;;;21.10;72.40;;;;;;5022864;28;20046;-73
2023/06/20 06:41:44;;;;;;;0.00;0.00;;;21.00;72.40;;;;;;5018281;28;20526;-73
2023/06/20 06:44:09;;;;;;;0.00;0.00;;;21.10;72.50;;;;;;5005438;28;20049;-73
2023/06/20 06:46:35;;;;;;;0.00;0.00;;;21.10;72.60;;;;;;5024028;28;20053;-73
2023/06/20 06:49:02;;;;;;;0.00;0.00;;;21.10;72.60;;;;;;5027367;28;20411;-72
2023/06/20 06:51:28;;;;;;;0.00;0.00;;;21.10;72.60;;;;;;5024985;28;20081;-72
2023/06/20 06:53:54;;;;;;;0.08;0.08;;;21.10;72.70;;;;;;5026494;28;20052;-67
2023/06/20 06:56:19;;;;;;;0.00;0.00;;;21.20;72.50;;;;;;5024513;28;20045;-68
2023/06/20 06:58:45;;;;;;;0.20;0.10;;;21.30;72.30;;;;;;5007449;28;20089;-67
2023/06/20 07:01:11;;;;;;;0.00;0.00;;;21.40;72.10;;;;;;5026129;28;20053;-68
2023/06/20 07:03:36;;;;;;;0.00;0.00;;;21.60;71.80;;;;;;5026230;28;20041;-70
2023/06/20 07:06:02;;;;;;;0.00;0.00;;;21.60;71.70;;;;;;5025670;28;20057;-70
2023/06/20 07:08:27;;;;;;;0.00;0.00;;;21.80;71.70;;;;;;5025895;28;20047;-70
2023/06/20 07:10:53;;;;;;;0.00;0.00;;;21.80;71.60;;;;;;5007162;28;20057;-71
2023/06/20 07:13:18;;;;;;;0.00;0.00;;;21.80;71.50;;;;;;5009690;28;20156;-68
2023/06/20 07:15:44;;;;;;;0.00;0.00;;;21.90;71.80;;;;;;5027084;28;20050;-68
2023/06/20 07:18:09;;;;;;;0.17;0.17;;;21.90;72.10;;;;;;5027903;28;20049;-67
2023/06/20 07:20:35;;;;;;;0.00;0.00;;;21.90;72.30;;;;;;5027594;28;20053;-67
2023/06/20 07:23:00;;;;;;;3.30;0.95;;;21.90;72.10;;;;;;5027302;28;20041;-67
2023/06/20 07:25:26;;;;;;;0.28;0.28;;;22.00;72.00;;;;;;5026034;28;20152;-67
2023/06/20 07:27:51;;;;;;;0.00;0.00;;;22.00;72.00;;;;;;5027485;28;20128;-68
2023/06/20 07:30:17;;;;;;;0.00;0.00;;;22.00;72.10;;;;;;5025935;28;20104;-68
2023/06/20 07:32:43;;;;;;;0.00;0.00;;;22.00;72.40;;;;;;5019464;28;20049;-68
2023/06/20 07:35:08;;;;;;;0.00;0.00;;;22.10;72.20;;;;;;5023237;28;20051;-67
2023/06/20 07:37:34;;;;;;;0.00;0.00;;;22.10;72.10;;;;;;5024988;28;20672;-68
2023/06/20 07:40:00;;;;;;;0.00;0.00;;;22.20;72.00;;;;;;5026329;28;20057;-68
2023/06/20 07:42:26;;;;;;;0.00;0.00;;;22.20;71.90;;;;;;5026800;28;20037;-68
2023/06/20 07:44:51;;;;;;;0.00;0.00;;;22.20;71.60;;;;;;5027135;28;20060;-69
2023/06/20 07:47:17;;;;;;;0.00;0.00;;;22.30;71.60;;;;;;5026766;28;20125;-67
2023/06/20 07:49:43;;;;;;;0.00;0.00;;;22.40;71.60;;;;;;5026770;28;20388;-68
2023/06/20 07:52:09;;;;;;;0.00;0.00;;;22.40;71.80;;;;;;5027222;28;20184;-67
2023/06/20 07:54:35;;;;;;;0.00;0.00;;;22.50;71.90;;;;;;5025779;28;20060;-67
2023/06/20 07:57:00;;;;;;;0.00;0.00;;;22.50;71.50;;;;;;5026033;28;20037;-68
2023/06/20 07:59:26;;;;;;;0.10;0.10;;;22.50;71.30;;;;;;5026449;28;20049;-67
2023/06/20 08:01:51;;;;;;;0.22;0.22;;;22.50;71.40;;;;;;5026849;28;20038;-67
2023/06/20 08:04:17;;;;;;;2.83;0.38;;;22.60;71.30;;;;;;5027007;28;20073;-68
2023/06/20 08:06:42;;;;;;;1.35;0.22;;;22.60;71.10;;;;;;5026357;28;20041;-68
2023/06/20 08:09:08;;;;;;;0.00;0.00;;;22.80;71.00;;;;;;5026220;28;20045;-68
2023/06/20 08:11:34;;;;;;;0.00;0.00;;;22.80;70.70;;;;;;5009409;28;20045;-68
2023/06/20 08:14:00;;;;;;;0.00;0.00;;;22.90;70.70;;;;;;5026748;28;20045;-67
2023/06/20 08:16:25;;;;;;;0.00;0.00;;;22.90;70.60;;;;;;5025488;28;20490;-67
2023/06/20 08:18:51;;;;;;;0.00;0.00;;;23.00;70.70;;;;;;5026774;28;20040;-68
2023/06/20 08:21:16;;;;;;;0.10;0.10;;;23.00;70.80;;;;;;5026256;28;20046;-67
2023/06/20 08:23:42;;;;;;;0.00;0.00;;;23.10;70.90;;;;;;5026768;28;20045;-67
2023/06/20 08:26:07;;;;;;;0.00;0.00;;;23.20;71.20;;;;;;5017538;28;20080;-67
2023/06/20 08:28:33;;;;;;;0.15;0.13;;;23.20;70.80;;;;;;5021828;28;20041;-70
2023/06/20 08:30:59;;;;;;;0.00;0.00;;;23.30;70.50;;;;;;5008318;28;20057;-70
2023/06/20 08:33:24;;;;;;;0.00;0.00;;;23.40;70.50;;;;;;5026780;28;20619;-70
2023/06/20 08:35:50;;;;;;;0.00;0.00;;;23.40;70.40;;;;;;5025158;28;20137;-71
2023/06/20 08:38:16;;;;;;;0.00;0.00;;;23.50;70.30;;;;;;5024996;28;20080;-66
2023/06/20 08:40:42;;;;;;;0.10;0.10;;;23.60;70.40;;;;;;5026179;28;20048;-65
2023/06/20 08:43:14;;;;;;;0.00;0.00;;;23.60;70.00;;;;;;5025851;28;20049;-66
2023/06/20 08:45:40;;;;;;;0.08;0.08;;;23.60;69.60;;;;;;5024539;28;20771;-65
2023/06/20 08:48:05;;;;;;;0.00;0.00;;;23.70;70.00;;;;;;5026626;28;20042;-65
2023/06/20 08:50:32;;;;;;;0.10;0.10;;;23.70;69.70;;;;;;5025597;28;20045;-65
2023/06/20 08:53:00;;;;;;;0.10;0.10;;;23.70;69.80;;;;;;5028904;28;20517;-66
2023/06/20 08:55:28;;;;;;;0.40;0.20;;;23.80;69.90;;;;;;5030305;28;20053;-66
2023/06/20 08:57:55;;;;;;;0.00;0.00;;;23.80;70.10;;;;;;5026996;28;20460;-66
2023/06/20 09:00:22;;;;;;;0.10;0.10;;;24.00;70.10;;;;;;5029736;28;20061;-66
2023/06/20 09:02:51;;;;;;;0.00;0.00;;;24.00;69.80;;;;;;5029783;28;20042;-66
2023/06/20 09:05:17;;;;;;;0.00;0.00;;;24.10;69.50;;;;;;5028719;28;20049;-65
2023/06/20 09:07:44;;;;;;;0.00;0.00;;;24.10;69.20;;;;;;5030773;28;20554;-65
2023/06/20 09:10:13;;;;;;;0.00;0.00;;;24.10;69.10;;;;;;5029834;28;20148;-65
2023/06/20 09:12:53;;;;;;;0.00;0.00;;;24.20;69.50;;;;;;5028193;28;20045;-65
2023/06/20 09:15:24;;;;;;;0.00;0.00;;;24.20;69.20;;;;;;5028535;28;20053;-65
2023/06/20 09:17:54;;;;;;;0.00;0.00;;;24.10;69.10;;;;;;5028522;28;20513;-68
2023/06/20 09:20:23;;;;;;;0.00;0.00;;;24.20;69.10;;;;;;5024940;28;20055;-66
2023/06/20 09:22:49;;;;;;;0.22;0.22;;;24.20;69.00;;;;;;5029872;28;20049;-66
2023/06/20 09:25:21;;;;;;;0.00;0.00;;;24.30;69.30;;;;;;5030382;28;20053;-66
2023/06/20 09:27:46;;;;;;;0.10;0.10;;;24.30;69.60;;;;;;5030283;28;20127;-67
2023/06/20 09:30:12;;;;;;;0.00;0.00;;;24.50;69.40;;;;;;5029837;28;20057;-67
2023/06/20 09:32:40;;;;;;;0.05;0.05;;;24.50;68.90;;;;;;5029691;28;20042;-66
2023/06/20 09:35:08;;;;;;;0.00;0.00;;;24.60;69.10;;;;;;5029991;28;20112;-66
2023/06/20 09:37:40;;;;;;;0.10;0.10;;;24.70;68.90;;;;;;5011576;28;20049;-66
2023/06/20 09:40:08;;;;;;;0.28;0.25;;;24.80;67.60;;;;;;5026312;28;20171;-66
2023/06/20 09:42:34;;;;;;;0.00;0.00;;;24.90;68.00;;;;;;5028523;28;20876;-66
2023/06/20 09:45:01;;;;;;;0.20;0.20;;;25.00;68.30;;;;;;5027571;28;20056;-67
2023/06/20 09:47:27;;;;;;;0.00;0.00;;;25.00;67.60;;;;;;5028534;28;20041;-66
2023/06/20 09:49:58;;;;;;;0.00;0.00;;;25.10;67.70;;;;;;5030316;28;20042;-66
2023/06/20 09:52:47;;;;;;;0.00;0.00;;;25.20;67.50;;;;;;5029112;28;20042;-66
2023/06/20 09:55:14;;;;;;;0.10;0.10;;;25.20;67.10;;;;;;5025318;28;20049;-66
2023/06/20 09:57:49;;;;;;;0.00;0.00;;;25.30;67.10;;;;;;5026733;28;20064;-66
2023/06/20 10:00:16;;;;;;;0.00;0.00;;;25.40;67.00;;;;;;5028782;28;20068;-67
2023/06/20 10:02:47;;;;;;;0.00;0.00;;;25.50;66.20;;;;;;5027237;28;20096;-66
2023/06/20 10:05:17;;;;;;;0.00;0.00;;;25.60;66.60;;;;;;5026320;28;20523;-66
2023/06/20 10:07:45;;;;;;;0.00;0.00;;;25.60;66.10;;;;;;5028337;28;20041;-66
2023/06/20 10:10:13;;;;;;;0.00;0.00;;;25.70;66.00;;;;;;5024549;28;20061;-67
2023/06/20 10:12:41;;;;;;;0.00;0.00;;;25.80;65.50;;;;;;5024100;28;20125;-67
2023/06/20 10:15:10;;;;;;;0.00;0.00;;;25.90;65.40;;;;;;5027855;28;20049;-65
2023/06/20 10:17:41;;;;;;;0.30;0.20;;;25.90;64.70;;;;;;5028259;28;20049;-66
2023/06/20 10:20:08;;;;;;;0.00;0.00;;;25.90;64.00;;;;;;5028136;28;20084;-65
2023/06/20 10:22:36;;;;;;;0.00;0.00;;;25.90;64.70;;;;;;5010524;28;20049;-65
2023/06/20 10:25:14;;;;;;;0.00;0.00;;;26.00;65.40;;;;;;5028347;28;20446;-65
2023/06/20 10:27:53;;;;;;;0.00;0.00;;;26.00;64.50;;;;;;5027972;28;20073;-66
2023/06/20 10:30:53;;;;;;;0.00;0.00;;;26.10;64.70;;;;;;5026717;28;20125;-66
2023/06/20 10:33:33;;;;;;;0.00;0.00;;;26.20;65.00;;;;;;5026052;28;20041;-67
2023/06/20 10:36:10;;;;;;;0.00;0.00;;;26.30;64.10;;;;;;5027971;28;20057;-66
2023/06/20 10:38:51;;;;;;;0.68;0.68;;;26.40;64.40;;;;;;5027117;28;20689;-66
2023/06/20 10:41:27;;;;;;;0.00;0.00;;;26.50;64.40;;;;;;5028015;28;20461;-66
2023/06/20 10:44:00;;;;;;;0.00;0.00;;;26.50;63.30;;;;;;5028128;28;20053;-66
2023/06/20 10:46:46;;;;;;;0.00;0.00;;;26.60;63.70;;;;;;5028291;28;20092;-66
2023/06/20 10:49:11;;;;;;;0.05;0.05;;;26.70;63.70;;;;;;5027979;28;20052;-66
2023/06/20 10:51:57;;;;;;;0.00;0.00;;;26.70;62.30;;;;;;5027986;28;20037;-66
2023/06/20 10:54:32;;;;;;;0.00;0.00;;;26.80;63.10;;;;;;5027478;28;20041;-66
2023/06/20 10:56:57;;;;;;;0.00;0.00;;;27.00;63.50;;;;;;5028151;28;20116;-66
2023/06/20 10:59:23;;;;;;;0.00;0.00;;;27.00;62.30;;;;;;5027677;28;20402;-66
2023/06/20 11:01:48;;;;;;;0.10;0.10;;;27.00;61.80;;;;;;4993958;28;20545;-66
2023/06/20 11:04:15;;;;;;;0.00;0.00;;;27.10;62.60;;;;;;5025323;28;20375;-66
2023/06/20 11:06:42;;;;;;;0.17;0.17;;;27.20;62.50;;;;;;5025293;28;20091;-66
2023/06/20 11:09:18;;;;;;;0.03;0.03;;;27.40;61.70;;;;;;5008791;28;20037;-66
2023/06/20 11:11:43;;;;;;;0.08;0.08;;;27.50;61.70;;;;;;5030053;28;20037;-66
2023/06/20 11:14:14;;;;;;;0.22;0.22;;;27.50;60.80;;;;;;5029386;28;20560;-66
2023/06/20 11:16:41;;;;;;;0.00;0.00;;;27.70;61.00;;;;;;5027401;28;20084;-66
2023/06/20 11:19:07;;;;;;;0.00;0.00;;;27.70;59.60;;;;;;5027778;28;20034;-66
2023/06/20 11:21:33;;;;;;;0.28;0.28;;;27.90;59.00;;;;;;5010444;28;20561;-66
2023/06/20 11:24:03;;;;;;;0.13;0.13;;;28.00;59.20;;;;;;5025359;28;20049;-66
2023/06/20 11:26:34;;;;;;;0.00;0.00;;;28.00;60.50;;;;;;5027334;28;20041;-66
2023/06/20 11:29:04;;;;;;;0.30;0.30;;;28.10;59.70;;;;;;5027696;28;20051;-66
2023/06/20 11:31:31;;;;;;;0.00;0.00;;;28.20;59.80;;;;;;5028225;28;20048;-67
2023/06/20 11:34:06;;;;;;;0.00;0.00;;;28.30;58.00;;;;;;5011156;28;20034;-67
2023/06/20 11:36:37;;;;;;;0.10;0.10;;;28.40;58.00;;;;;;5026003;28;20060;-66
2023/06/20 11:39:07;;;;;;;0.00;0.00;;;28.50;57.50;;;;;;5026302;28;20059;-66
2023/06/20 11:41:33;;;;;;;0.00;0.00;;;28.50;57.30;;;;;;5026175;28;20049;-66
2023/06/20 11:43:59;;;;;;;0.00;0.00;;;28.60;58.00;;;;;;5027051;28;20045;-66
2023/06/20 11:46:25;;;;;;;0.00;0.00;;;28.70;57.00;;;;;;5026345;28;20025;-66
2023/06/20 11:48:52;;;;;;;0.00;0.00;;;28.80;55.80;;;;;;5027483;28;20119;-66
2023/06/20 11:51:23;;;;;;;0.20;0.20;;;28.90;56.60;;;;;;5026741;28;20546;-66
2023/06/20 11:54:02;;;;;;;0.52;0.50;;;28.90;55.10;;;;;;5027580;28;20041;-66
2023/06/20 11:56:28;;;;;;;0.00;0.00;;;29.00;54.00;;;;;;5026632;28;20049;-66
2023/06/20 11:58:54;;;;;;;0.05;0.05;;;29.10;55.70;;;;;;5022415;28;20379;-66
2023/06/20 12:01:21;;;;;;;0.57;0.30;;;29.30;56.00;;;;;;5027397;28;20074;-65
2023/06/20 12:04:03;;;;;;;0.00;0.00;;;29.40;55.70;;;;;;5026935;28;20049;-66
2023/06/20 12:06:31;;;;;;;0.25;0.22;;;29.50;54.70;;;;;;5027404;28;20410;-66
2023/06/20 12:08:58;;;;;;;0.10;0.10;;;29.50;53.20;;;;;;5026641;28;20076;-66
2023/06/20 12:11:25;;;;;;;0.00;0.00;;;29.70;55.30;;;;;;5027011;28;20037;-66
2023/06/20 12:13:52;;;;;;;0.00;0.00;;;29.80;54.50;;;;;;5008022;28;20049;-65
2023/06/20 12:16:19;;;;;;;0.00;0.00;;;29.90;54.70;;;;;;5026298;28;20049;-65
2023/06/20 12:18:46;;;;;;;0.00;0.00;;;29.90;53.00;;;;;;5027180;28;20049;-65
2023/06/20 12:21:11;;;;;;;0.00;0.00;;;29.80;54.80;;;;;;5027202;28;20084;-65
2023/06/20 12:23:37;;;;;;;0.35;0.30;;;29.80;54.50;;;;;;5022322;28;20077;-66
2023/06/20 12:26:02;;;;;;;0.00;0.00;;;29.70;54.60;;;;;;5027222;28;20045;-66
2023/06/20 12:28:28;;;;;;;0.00;0.00;;;29.60;54.20;;;;;;5022790;28;20084;-65
2023/06/20 12:30:54;;;;;;;0.20;0.20;;;29.70;54.80;;;;;;5029068;28;20033;-65
2023/06/20 12:33:19;;;;;;;0.00;0.00;;;29.80;55.30;;;;;;5028368;28;20057;-66
2023/06/20 12:35:45;;;;;;;0.00;0.00;;;29.80;53.40;;;;;;5028460;28;20091;-65
2023/06/20 12:38:11;;;;;;;0.10;0.10;;;29.80;55.00;;;;;;5029668;28;20580;-67
2023/06/20 12:40:37;;;;;;;0.03;0.03;;;29.70;52.60;;;;;;5028456;28;20072;-66
2023/06/20 12:43:02;;;;;;;0.00;0.00;;;29.60;52.90;;;;;;5029371;28;20061;-66
2023/06/20 12:45:28;;;;;;;0.15;0.15;;;29.50;53.20;;;;;;5028658;28;20030;-66
2023/06/20 12:47:54;;;;;;;0.00;0.00;;;29.50;55.10;;;;;;5010977;28;20053;-66
2023/06/20 12:50:19;;;;;;;1.73;0.75;;;29.80;55.90;;;;;;5029308;28;20037;-65